createdAt,value
2022-10-18T00:02:20.389Z,95125.41
2022-10-18T00:04:47.759Z,95129.25
2022-10-18T00:07:14.662Z,95122.97
2022-10-18T00:09:41.435Z,95129.16
2022-10-18T00:12:08.209Z,95124.78
2022-10-18T00:14:35.061Z,95130.53
2022-10-18T00:17:02.114Z,95114.59
2022-10-18T00:19:29.487Z,95116.25
2022-10-18T00:21:56.424Z,95113.59
2022-10-18T00:24:23.219Z,95109.78
2022-10-18T00:26:49.955Z,95110.06
2022-10-18T00:29:17.025Z,95104.41
2022-10-18T00:31:44.482Z,95095.84
2022-10-18T00:34:13.794Z,95091.69
2022-10-18T00:36:40.820Z,95094.41
2022-10-18T00:39:08.991Z,95085.03
2022-10-18T00:41:38.030Z,95086.88
2022-10-18T00:44:10.804Z,95074.38
2022-10-18T00:46:40.337Z,95084.56
2022-10-18T00:49:11.409Z,95086.47
2022-10-18T00:52:04.217Z,95085.94
2022-10-18T00:54:33.370Z,95090.13
2022-10-18T00:57:01.013Z,95083.13
2022-10-18T00:59:28.336Z,95082.28
2022-10-18T01:01:55.085Z,95072.66
2022-10-18T01:04:22.365Z,95073.81
2022-10-18T01:07:16.446Z,95076.34
2022-10-18T01:10:00.820Z,95070.38
2022-10-18T01:12:56.061Z,95070.00
2022-10-18T01:15:32.298Z,95065.44
2022-10-18T01:18:02.034Z,95065.34
2022-10-18T01:20:59.928Z,95063.47
2022-10-18T01:24:08.802Z,95063.53
2022-10-18T01:27:00.567Z,95062.97
2022-10-18T01:30:04.591Z,95059.50
2022-10-18T01:32:38.816Z,95058.13
2022-10-18T01:35:11.919Z,95065.09
2022-10-18T01:37:39.488Z,95058.66
2022-10-18T01:40:07.436Z,95054.13
2022-10-18T01:42:34.858Z,95058.22
2022-10-18T01:45:02.136Z,95049.69
2022-10-18T01:47:29.270Z,95053.19
2022-10-18T01:50:00.786Z,95046.13
2022-10-18T01:52:27.776Z,95044.41
2022-10-18T01:54:55.595Z,95047.06
2022-10-18T01:57:51.696Z,95050.22
2022-10-18T02:00:26.760Z,95052.03
2022-10-18T02:03:02.427Z,95051.59
2022-10-18T02:05:31.947Z,95046.44
2022-10-18T02:08:22.908Z,95048.59
2022-10-18T02:11:11.156Z,95042.69
2022-10-18T02:13:59.462Z,95036.16
2022-10-18T02:16:30.089Z,95037.41
2022-10-18T02:19:06.903Z,95037.63
2022-10-18T02:21:34.334Z,95033.94
2022-10-18T02:24:02.342Z,95031.75
2022-10-18T02:26:29.744Z,95024.22
2022-10-18T02:28:56.678Z,95022.69
2022-10-18T02:31:29.002Z,95020.72
2022-10-18T02:34:21.023Z,95033.59
2022-10-18T02:36:48.563Z,95031.66
2022-10-18T02:39:19.070Z,95031.66
2022-10-18T02:41:45.928Z,95039.88
2022-10-18T02:44:16.714Z,95040.03
2022-10-18T02:46:51.823Z,95049.56
2022-10-18T02:49:18.620Z,95046.91
2022-10-18T02:51:45.505Z,95046.00
2022-10-18T02:54:12.314Z,95044.22
2022-10-18T02:56:39.124Z,95037.56
2022-10-18T02:59:07.516Z,95041.81
2022-10-18T03:01:36.246Z,95040.44
2022-10-18T03:04:04.083Z,95038.06
2022-10-18T03:06:31.803Z,95034.88
2022-10-18T03:08:58.619Z,95031.66
2022-10-18T03:11:25.404Z,95037.25
2022-10-18T03:13:52.227Z,95036.44
2022-10-18T03:16:19.069Z,95034.16
2022-10-18T03:18:46.012Z,95033.50
2022-10-18T03:21:12.874Z,95031.72
2022-10-18T03:23:41.816Z,95032.53
2022-10-18T03:26:09.502Z,95025.88
2022-10-18T03:28:36.348Z,95025.72
2022-10-18T03:31:04.423Z,95026.22
2022-10-18T03:33:32.533Z,95023.59
2022-10-18T03:35:59.384Z,95031.53
2022-10-18T03:38:26.395Z,95029.91
2022-10-18T03:40:53.183Z,95034.50
2022-10-18T03:43:20.027Z,95037.94
2022-10-18T03:45:46.797Z,95031.22
2022-10-18T03:48:13.979Z,95040.25
2022-10-18T03:50:40.858Z,95040.50
2022-10-18T03:53:07.679Z,95039.66
2022-10-18T03:55:34.626Z,95043.16
2022-10-18T03:58:01.498Z,95049.25
2022-10-18T04:00:28.374Z,95047.84
2022-10-18T04:02:56.087Z,95044.50
2022-10-18T04:05:24.207Z,95043.84
2022-10-18T04:07:50.975Z,95047.22
2022-10-18T04:10:18.742Z,95054.72
2022-10-18T04:12:47.770Z,95044.91
2022-10-18T04:15:14.845Z,95046.06
2022-10-18T04:17:42.317Z,95045.41
2022-10-18T04:20:09.693Z,95046.63
2022-10-18T04:22:36.734Z,95045.72
2022-10-18T04:25:04.391Z,95038.75
2022-10-18T04:27:31.568Z,95040.56
2022-10-18T04:29:58.736Z,95039.81
2022-10-18T04:32:27.900Z,95030.97
2022-10-18T04:34:54.726Z,95036.91
2022-10-18T04:37:21.725Z,95035.47
2022-10-18T04:39:51.354Z,95027.75
2022-10-18T04:42:21.140Z,95026.38
2022-10-18T04:44:47.992Z,95027.19
2022-10-18T04:47:15.038Z,95025.41
2022-10-18T04:49:41.891Z,95029.59
2022-10-18T04:52:08.881Z,95028.69
2022-10-18T04:54:35.816Z,95027.56
2022-10-18T04:57:02.632Z,95021.53
2022-10-18T04:59:29.502Z,95019.59
2022-10-18T05:01:56.425Z,95022.06
2022-10-18T05:04:23.400Z,95017.72
2022-10-18T05:06:50.265Z,95009.28
2022-10-18T05:09:17.045Z,95005.34
2022-10-18T05:11:44.154Z,95000.69
2022-10-18T05:14:10.966Z,95006.97
2022-10-18T05:16:37.776Z,95011.78
2022-10-18T05:19:05.823Z,95010.66
2022-10-18T05:21:33.459Z,95014.91
2022-10-18T05:24:00.495Z,95017.28
2022-10-18T05:26:27.359Z,95017.28
2022-10-18T05:28:54.389Z,95022.03
2022-10-18T05:31:21.602Z,95021.75
2022-10-18T05:33:48.393Z,95028.16
2022-10-18T05:36:15.323Z,95017.41
2022-10-18T05:38:43.041Z,95026.31
2022-10-18T05:41:10.672Z,95033.69
2022-10-18T05:43:37.930Z,95025.38
2022-10-18T05:46:06.503Z,95023.13
2022-10-18T05:48:36.072Z,95021.97
2022-10-18T05:51:02.957Z,95031.25
2022-10-18T05:53:38.011Z,95033.47
2022-10-18T05:56:06.289Z,95027.22
2022-10-18T05:58:33.594Z,95025.38
2022-10-18T06:01:04.590Z,95031.38
2022-10-18T06:03:31.690Z,95035.91
2022-10-18T06:06:06.177Z,95028.97
2022-10-18T06:08:33.262Z,95030.47
2022-10-18T06:11:00.158Z,95028.72
2022-10-18T06:13:28.276Z,95033.66
2022-10-18T06:15:57.717Z,95026.88
2022-10-18T06:18:24.805Z,95024.34
2022-10-18T06:20:59.101Z,95030.00
2022-10-18T06:23:38.190Z,95036.28
2022-10-18T06:26:18.803Z,95030.91
2022-10-18T06:28:51.859Z,95025.88
2022-10-18T06:31:24.476Z,95022.91
2022-10-18T06:33:53.533Z,95022.78
2022-10-18T06:36:24.200Z,95016.50
2022-10-18T06:38:56.211Z,95016.97
2022-10-18T06:41:42.324Z,95018.94
2022-10-18T06:44:21.834Z,95023.13
2022-10-18T06:46:59.827Z,95010.88
2022-10-18T06:49:36.419Z,95012.19
2022-10-18T06:52:11.671Z,95013.06
2022-10-18T06:54:38.781Z,95012.50
2022-10-18T06:57:08.883Z,95012.19
2022-10-18T06:59:36.010Z,95012.44
2022-10-18T07:02:10.846Z,95013.94
2022-10-18T07:07:41.558Z,95009.28
2022-10-18T07:10:13.041Z,95013.59
2022-10-18T07:12:43.845Z,95019.84
2022-10-18T07:15:17.995Z,95013.31
2022-10-18T07:17:51.331Z,95019.94
2022-10-18T07:20:39.388Z,95017.59
2022-10-18T07:23:25.708Z,95011.34
2022-10-18T07:26:28.136Z,95017.91
2022-10-18T07:29:16.181Z,95020.81
2022-10-18T07:32:27.580Z,95013.16
2022-10-18T07:40:18.663Z,95011.84
2022-10-18T07:42:45.428Z,95000.47
2022-10-18T07:45:13.667Z,94997.91
2022-10-18T07:47:40.817Z,94994.75
2022-10-18T07:50:08.479Z,94995.59
2022-10-18T07:52:35.229Z,94985.44
2022-10-18T07:55:01.961Z,94980.94
2022-10-18T07:57:28.668Z,94983.84
2022-10-18T07:59:57.071Z,94981.38
2022-10-18T08:02:24.456Z,94978.59
2022-10-18T08:04:51.214Z,94980.13
2022-10-18T08:07:18.033Z,94979.03
2022-10-18T08:09:44.873Z,94976.97
2022-10-18T08:12:11.702Z,94979.59
2022-10-18T08:14:38.492Z,94976.03
2022-10-18T08:17:05.242Z,94972.47
2022-10-18T08:19:32.147Z,94968.53
2022-10-18T08:21:58.864Z,94963.00
2022-10-18T08:24:25.655Z,94964.38
2022-10-18T08:26:52.452Z,94962.38
2022-10-18T08:29:23.340Z,94959.00
2022-10-18T08:31:51.775Z,94952.03
2022-10-18T08:34:19.794Z,94947.56
2022-10-18T08:36:46.931Z,94937.00
2022-10-18T08:39:13.794Z,94934.31
2022-10-18T08:42:11.742Z,94937.44
2022-10-18T08:44:45.901Z,94926.97
2022-10-18T08:47:27.042Z,94932.78
2022-10-18T08:50:00.542Z,94924.25
2022-10-18T08:52:34.804Z,94914.41
2022-10-18T08:55:04.637Z,94904.81
2022-10-18T08:57:32.464Z,94913.84
2022-10-18T08:59:59.279Z,94911.28
2022-10-18T09:02:38.744Z,94905.41
2022-10-18T09:05:15.229Z,94902.78
2022-10-18T09:07:45.120Z,94905.41
2022-10-18T09:10:11.894Z,94902.31
2022-10-18T09:13:16.180Z,94900.75
2022-10-18T09:15:52.375Z,94898.25
2022-10-18T09:18:38.163Z,94901.91
2022-10-18T09:21:46.698Z,94894.50
2022-10-18T09:24:29.205Z,94895.34
2022-10-18T09:27:00.284Z,94897.56
2022-10-18T09:29:33.193Z,94894.88
2022-10-18T09:32:34.835Z,94893.84
2022-10-18T09:35:15.958Z,94885.72
2022-10-18T09:37:43.523Z,94885.59
2022-10-18T09:40:26.270Z,94875.78
2022-10-18T09:43:13.088Z,94880.06
2022-10-18T09:45:43.584Z,94887.22
2022-10-18T09:48:48.527Z,94884.94
2022-10-18T09:51:24.145Z,94878.53
2022-10-18T09:54:15.374Z,94869.47
2022-10-18T09:57:04.247Z,94868.31
2022-10-18T09:59:47.097Z,94859.97
2022-10-18T10:02:15.876Z,94854.84
2022-10-18T10:04:43.041Z,94858.50
2022-10-18T10:07:14.077Z,94855.34
2022-10-18T10:09:46.283Z,94845.84
2022-10-18T10:12:28.234Z,94844.13
2022-10-18T10:14:55.230Z,94840.03
2022-10-18T10:17:26.233Z,94840.84
2022-10-18T10:20:20.819Z,94825.59
2022-10-18T10:22:47.985Z,94821.03
2022-10-18T10:25:32.051Z,94819.56
2022-10-18T10:28:04.225Z,94811.25
2022-10-18T10:30:34.272Z,94801.59
2022-10-18T10:33:01.495Z,94797.34
2022-10-18T10:35:52.502Z,94807.13
2022-10-18T10:38:25.732Z,94790.47
2022-10-18T10:40:53.114Z,94786.34
2022-10-18T10:43:37.089Z,94786.16
2022-10-18T10:46:10.790Z,94772.38
2022-10-18T10:48:50.538Z,94767.47
2022-10-18T10:51:38.466Z,94765.72
2022-10-18T10:54:08.181Z,94761.03
2022-10-18T10:56:59.153Z,94760.44
2022-10-18T10:59:28.521Z,94760.13
2022-10-18T11:02:14.330Z,94756.88
2022-10-18T11:04:42.223Z,94756.88
2022-10-18T11:07:33.593Z,94748.69
2022-10-18T11:10:11.358Z,94747.53
2022-10-18T11:12:38.878Z,94741.56
2022-10-18T11:15:14.672Z,94736.13
2022-10-18T11:18:01.389Z,94733.25
2022-10-18T11:20:29.772Z,94735.81
2022-10-18T11:22:56.521Z,94722.94
2022-10-18T11:25:25.944Z,94715.63
2022-10-18T11:28:27.149Z,94710.47
2022-10-18T11:31:23.266Z,94701.91
2022-10-18T11:34:20.980Z,94697.75
2022-10-18T11:37:30.103Z,94696.09
2022-10-18T11:40:09.896Z,94693.75
2022-10-18T11:42:42.623Z,94680.97
2022-10-18T11:48:04.686Z,94673.19
2022-10-18T11:50:31.460Z,94679.56
2022-10-18T11:53:01.335Z,94665.19
2022-10-18T11:55:37.131Z,94670.94
2022-10-18T11:58:15.708Z,94661.09
2022-10-18T12:01:04.555Z,94658.44
2022-10-18T12:03:41.055Z,94651.63
2022-10-18T12:06:15.696Z,94649.47
2022-10-18T12:08:53.324Z,94641.41
2022-10-18T12:11:24.450Z,94647.66
2022-10-18T12:14:13.230Z,94625.31
2022-10-18T12:17:20.361Z,94621.03
2022-10-18T12:19:33.095Z,94620.84
2022-10-18T12:22:35.494Z,94615.06
2022-10-18T12:25:02.693Z,94619.78
2022-10-18T12:27:38.675Z,94613.91
2022-10-18T12:30:14.727Z,94610.72
2022-10-18T12:32:56.294Z,94606.91
2022-10-18T12:35:32.362Z,94600.66
2022-10-18T12:38:08.260Z,94597.75
2022-10-18T12:40:43.700Z,94598.78
2022-10-18T12:43:18.175Z,94591.94
2022-10-18T12:45:56.941Z,94578.13
2022-10-18T12:48:45.680Z,94588.38
2022-10-18T12:51:21.386Z,94577.09
2022-10-18T12:54:01.771Z,94574.50
2022-10-18T12:56:28.472Z,94581.56
2022-10-18T12:59:13.869Z,94581.09
2022-10-18T13:01:52.927Z,94580.41
2022-10-18T13:04:28.717Z,94571.75
2022-10-18T13:06:58.590Z,94572.97
2022-10-18T13:09:30.737Z,94571.88
2022-10-18T13:12:20.148Z,94567.63
2022-10-18T13:15:12.453Z,94570.97
2022-10-18T13:17:50.136Z,94563.66
2022-10-18T13:20:28.170Z,94553.16
2022-10-18T13:23:35.357Z,94557.22
2022-10-18T13:26:19.651Z,94550.03
2022-10-18T13:29:24.908Z,94548.19
2022-10-18T13:32:07.355Z,94543.13
2022-10-18T13:34:38.205Z,94548.84
2022-10-18T13:37:06.833Z,94541.69
2022-10-18T13:39:33.868Z,94543.16
2022-10-18T13:42:00.790Z,94538.09
2022-10-18T13:44:40.110Z,94533.63
2022-10-18T13:47:07.107Z,94526.53
2022-10-18T13:49:39.770Z,94532.81
2022-10-18T13:52:34.417Z,94523.66
2022-10-18T13:55:04.288Z,94526.91
2022-10-18T13:57:37.088Z,94519.13
2022-10-18T14:00:18.884Z,94515.28
2022-10-18T14:02:56.770Z,94511.78
2022-10-18T14:05:46.589Z,94507.91
2022-10-18T14:08:20.784Z,94503.09
2022-10-18T14:11:07.285Z,94509.53
2022-10-18T14:13:43.745Z,94511.28
2022-10-18T14:16:25.166Z,94502.91
2022-10-18T14:18:55.689Z,94502.84
2022-10-18T14:21:31.471Z,94510.97
2022-10-18T14:23:58.980Z,94511.09
2022-10-18T14:26:29.245Z,94512.91
2022-10-18T14:29:07.251Z,94510.09
2022-10-18T14:31:34.744Z,94515.38
2022-10-18T14:34:01.903Z,94514.47
2022-10-18T14:36:41.023Z,94515.13
2022-10-18T14:39:18.844Z,94511.00
2022-10-18T14:41:53.495Z,94504.06
2022-10-18T14:44:27.733Z,94503.91
2022-10-18T14:47:31.313Z,94512.31
2022-10-18T14:49:58.383Z,94500.19
2022-10-18T14:52:35.297Z,94503.22
2022-10-18T14:55:02.735Z,94499.78
2022-10-18T14:57:36.415Z,94498.75
2022-10-18T15:00:21.173Z,94496.59
2022-10-18T15:02:48.067Z,94492.88
2022-10-18T15:05:22.292Z,94490.09
2022-10-18T15:07:51.242Z,94492.38
2022-10-18T15:10:22.259Z,94490.72
2022-10-18T15:13:08.799Z,94488.59
2022-10-18T15:15:36.252Z,94496.31
2022-10-18T15:18:05.288Z,94484.22
2022-10-18T15:20:42.287Z,94485.63
2022-10-18T15:23:20.900Z,94478.44
2022-10-18T15:25:47.711Z,94476.06
2022-10-18T15:28:32.816Z,94476.91
2022-10-18T15:31:01.887Z,94476.94
2022-10-18T15:33:34.517Z,94460.78
2022-10-18T15:36:11.961Z,94464.69
2022-10-18T15:38:38.897Z,94462.44
2022-10-18T15:41:45.800Z,94464.88
2022-10-18T15:44:34.880Z,94459.13
2022-10-18T15:47:13.930Z,94454.97
2022-10-18T15:49:46.771Z,94459.81
2022-10-18T15:52:37.409Z,94453.66
2022-10-18T15:55:29.937Z,94449.81
2022-10-18T15:58:04.760Z,94447.91
2022-10-18T16:00:31.545Z,94452.72
2022-10-18T16:02:58.307Z,94462.44
2022-10-18T16:05:25.788Z,94461.13
2022-10-18T16:07:52.872Z,94470.66
2022-10-18T16:10:19.666Z,94470.03
2022-10-18T16:12:46.510Z,94479.56
2022-10-18T16:15:13.415Z,94468.56
2022-10-18T16:17:40.201Z,94469.22
2022-10-18T16:20:09.771Z,94475.53
2022-10-18T16:22:37.151Z,94480.84
2022-10-18T16:25:04.303Z,94469.22
2022-10-18T16:27:31.057Z,94475.16
2022-10-18T16:29:57.934Z,94484.66
2022-10-18T16:32:24.819Z,94476.59
2022-10-18T16:34:51.606Z,94478.84
2022-10-18T16:37:18.319Z,94481.66
2022-10-18T16:39:45.099Z,94477.91
2022-10-18T16:42:11.910Z,94479.44
2022-10-18T16:44:38.723Z,94480.78
2022-10-18T16:47:05.436Z,94483.66
2022-10-18T16:49:32.253Z,94492.75
2022-10-18T16:51:59.706Z,94491.22
2022-10-18T16:54:26.485Z,94484.63
2022-10-18T16:56:53.277Z,94489.09
2022-10-18T16:59:30.984Z,94486.91
2022-10-18T17:01:58.022Z,94491.63
2022-10-18T17:04:25.044Z,94487.16
2022-10-18T17:06:52.975Z,94481.75
2022-10-18T17:09:19.775Z,94485.47
2022-10-18T17:11:46.527Z,94483.91
2022-10-18T17:14:13.230Z,94484.00
2022-10-18T17:16:40.028Z,94484.50
2022-10-18T17:19:08.239Z,94483.97
2022-10-18T17:21:35.363Z,94477.22
2022-10-18T17:24:03.275Z,94478.88
2022-10-18T17:26:30.732Z,94473.22
2022-10-18T17:29:00.226Z,94479.31
2022-10-18T17:31:28.206Z,94483.75
2022-10-18T17:33:55.434Z,94476.88
2022-10-18T17:36:22.685Z,94475.00
2022-10-18T17:38:56.127Z,94477.56
2022-10-18T17:41:23.078Z,94472.97
2022-10-18T17:43:50.044Z,94475.94
2022-10-18T17:46:18.013Z,94470.78
2022-10-18T17:48:45.662Z,94478.75
2022-10-18T17:51:14.659Z,94468.22
2022-10-18T17:53:41.440Z,94469.28
2022-10-18T17:56:08.583Z,94461.69
2022-10-18T17:58:35.699Z,94470.19
2022-10-18T18:01:16.338Z,94472.22
2022-10-18T18:03:43.405Z,94469.25
2022-10-18T18:06:16.131Z,94466.16
2022-10-18T18:08:43.017Z,94463.19
2022-10-18T18:11:09.809Z,94463.72
2022-10-18T18:13:36.620Z,94463.56
2022-10-18T18:16:17.435Z,94465.72
2022-10-18T18:18:45.056Z,94466.00
2022-10-18T18:21:11.984Z,94464.50
2022-10-18T18:23:38.892Z,94470.94
2022-10-18T18:26:06.242Z,94459.19
2022-10-18T18:28:34.559Z,94464.81
2022-10-18T18:31:11.922Z,94459.41
2022-10-18T18:33:38.799Z,94453.41
2022-10-18T18:36:06.808Z,94455.41
2022-10-18T18:38:34.903Z,94453.88
2022-10-18T18:41:18.008Z,94453.41
2022-10-18T18:43:49.495Z,94455.38
2022-10-18T18:46:16.279Z,94455.06
2022-10-18T18:48:43.129Z,94454.47
2022-10-18T18:51:17.806Z,94447.53
2022-10-18T18:53:45.400Z,94447.59
2022-10-18T18:56:17.208Z,94443.56
2022-10-18T18:58:44.268Z,94446.13
2022-10-18T19:01:31.927Z,94446.56
2022-10-18T19:03:59.995Z,94447.25
2022-10-18T19:06:31.392Z,94446.38
2022-10-18T19:09:01.666Z,94444.09
2022-10-18T19:11:37.811Z,94453.22
2022-10-18T19:15:06.834Z,94439.84
2022-10-18T19:21:21.953Z,94444.00
2022-10-18T19:23:50.240Z,94437.63
2022-10-18T19:26:27.773Z,94441.81
2022-10-18T19:28:55.001Z,94441.56
2022-10-18T19:31:21.954Z,94444.97
2022-10-18T19:33:59.304Z,94442.75
2022-10-18T19:36:27.700Z,94449.09
2022-10-18T19:38:54.663Z,94451.69
2022-10-18T19:41:21.649Z,94450.00
2022-10-18T19:43:48.548Z,94443.66
2022-10-18T19:46:15.450Z,94438.47
2022-10-18T19:48:42.346Z,94437.00
2022-10-18T19:51:15.985Z,94438.84
2022-10-18T19:53:46.393Z,94429.25
2022-10-18T19:56:22.025Z,94427.72
2022-10-18T19:58:49.589Z,94424.81
2022-10-18T20:01:16.995Z,94422.03
2022-10-18T20:03:44.491Z,94422.97
2022-10-18T20:06:11.680Z,94420.22
2022-10-18T20:08:39.590Z,94421.72
2022-10-18T20:11:09.008Z,94428.44
2022-10-18T20:13:36.295Z,94422.78
2022-10-18T20:16:04.243Z,94415.56
2022-10-18T20:18:31.288Z,94420.31
2022-10-18T20:20:58.019Z,94418.38
2022-10-18T20:23:25.079Z,94416.19
2022-10-18T20:26:18.085Z,94413.63
2022-10-18T20:28:57.016Z,94414.66
2022-10-18T20:31:29.618Z,94412.56
2022-10-18T20:34:01.192Z,94410.03
2022-10-18T20:36:29.653Z,94409.59
2022-10-18T20:38:57.016Z,94414.44
2022-10-18T20:41:27.232Z,94408.31
2022-10-18T20:43:58.990Z,94405.50
2022-10-18T20:46:27.082Z,94407.75
2022-10-18T20:48:54.366Z,94409.00
2022-10-18T20:51:21.724Z,94407.63
2022-10-18T20:53:48.843Z,94404.22
2022-10-18T20:56:21.607Z,94403.84
2022-10-18T20:58:50.443Z,94404.22
2022-10-18T21:01:18.665Z,94402.59
2022-10-18T21:03:47.204Z,94407.38
2022-10-18T21:06:14.972Z,94402.81
2022-10-18T21:08:42.244Z,94384.13
2022-10-18T21:11:09.981Z,94392.50
2022-10-18T21:13:37.087Z,94394.81
2022-10-18T21:16:05.202Z,94390.63
2022-10-18T21:18:33.944Z,94387.97
2022-10-18T21:23:46.773Z,94379.88
2022-10-18T21:26:19.028Z,94381.03
2022-10-18T21:28:46.333Z,94373.25
2022-10-18T21:31:17.378Z,94373.13
2022-10-18T21:33:44.804Z,94369.66
2022-10-18T21:36:12.897Z,94369.06
2022-10-18T21:38:40.310Z,94358.28
2022-10-18T21:41:11.176Z,94358.16
2022-10-18T21:43:45.933Z,94347.38
2022-10-18T21:46:13.612Z,94345.41
2022-10-18T21:48:44.196Z,94343.75
2022-10-18T21:51:11.517Z,94343.88
2022-10-18T21:53:38.276Z,94343.06
2022-10-18T21:56:10.876Z,94342.03
2022-10-18T21:58:38.547Z,94331.34
2022-10-18T22:01:23.175Z,94329.03
2022-10-18T22:03:51.791Z,94324.06
2022-10-18T22:06:18.993Z,94334.72
2022-10-18T22:08:51.925Z,94328.13
2022-10-18T22:11:20.395Z,94322.66
2022-10-18T22:13:47.402Z,94319.63
2022-10-18T22:16:15.840Z,94324.50
2022-10-18T22:18:43.432Z,94320.22
2022-10-18T22:21:11.773Z,94318.69
2022-10-18T22:23:50.143Z,94323.66
2022-10-18T22:26:23.917Z,94324.78
2022-10-18T22:28:59.312Z,94325.81
2022-10-18T22:31:28.696Z,94319.34
2022-10-18T22:33:56.795Z,94307.91
2022-10-18T22:36:25.698Z,94306.28
2022-10-18T22:38:52.624Z,94307.44
2022-10-18T22:41:19.823Z,94304.06
2022-10-18T22:43:47.819Z,94300.72
2022-10-18T22:46:15.032Z,94294.22
2022-10-18T22:48:42.464Z,94290.47
2022-10-18T22:51:09.429Z,94287.94
2022-10-18T22:53:37.021Z,94288.56
2022-10-18T22:56:04.578Z,94287.59
2022-10-18T22:58:31.898Z,94282.75
2022-10-18T23:01:13.240Z,94282.31
2022-10-18T23:03:40.318Z,94279.16
2022-10-18T23:06:20.356Z,94271.84
2022-10-18T23:08:47.230Z,94274.84
2022-10-18T23:11:14.445Z,94276.13
2022-10-18T23:13:41.298Z,94271.84
2022-10-18T23:16:08.149Z,94267.75
2022-10-18T23:18:35.007Z,94271.34
2022-10-18T23:21:06.802Z,94269.50
2022-10-18T23:23:35.673Z,94273.91
2022-10-18T23:26:17.019Z,94270.16
2022-10-18T23:28:45.763Z,94270.75
2022-10-18T23:31:15.244Z,94267.72
2022-10-18T23:33:42.016Z,94271.09
2022-10-18T23:36:09.005Z,94263.56
2022-10-18T23:38:36.799Z,94257.53
2022-10-18T23:41:04.663Z,94251.25
2022-10-18T23:43:31.856Z,94241.63
2022-10-18T23:45:58.789Z,94247.97
2022-10-18T23:48:25.675Z,94245.50
2022-10-18T23:50:52.739Z,94242.78
2022-10-18T23:53:20.070Z,94238.38
2022-10-18T23:55:54.117Z,94238.25
2022-10-18T23:58:21.116Z,94236.41
